Blanket, Texas
Current Conditions -  °F | °C
As of 4:35 AM on Sunday 26 Oct 2014 (Local Time) from KBWD Reporting Station
Broken Clouds Broken Clouds  
Wind Chill: 57°   Ceiling: 4400
Heat Index: 57°   Visibility: 10mi
Dew Point: 54°   Wind: 0mph
Humidity: 88%   Direction: NA
Pressure: 30.04"   Gusts: NA
Location:  31.82°N, 98.79°W
Report Text: KBWD 260935Z AUTO 00000KT 10SM FEW031 SCT035 BKN044 14/12 A3004 RMK AO2
Loading
Personal Weather Stations






























Interactive Weather Map
Tropical Storm Tracking
New forecast layout! Learn more

10-Day Weather Forecast

Advertisements
Track Severe Weather on mobile